Time,TemperatureF,DewpointF,PressureIn,WindDirection,WindDirectionDegrees,WindSpeedMPH,WindSpeedGustMPH,Humidity,HourlyPrecipIn,Conditions,Clouds,dailyrainin,SoftwareType,DateUTC
2013-05-01 17:45:00,75.5,32.7,30.35,NW,308,1.0,2.0,21,0.00,,,0.00,Weather View 32 v70,2013-05-01 21:45:00,
2013-05-01 17:50:00,75.3,31.4,30.34,SW,226,2.0,4.0,20,0.00,,,0.00,Weather View 32 v70,2013-05-01 21:50:00,
2013-05-01 17:55:00,75.3,28.8,30.35,South,172,3.0,4.0,18,0.00,,,0.00,Weather View 32 v70,2013-05-01 21:55:00,
2013-05-01 18:00:00,75.3,31.4,30.34,SW,233,3.0,6.0,20,0.00,,,0.00,Weather View 32 v70,2013-05-01 22:00:00,
2013-05-01 18:05:00,75.2,33.6,30.35,SE,132,3.0,7.0,22,0.00,,,0.00,Weather View 32 v70,2013-05-01 22:05:00,
2013-05-01 18:10:00,75.0,32.3,30.35,West,279,5.0,7.0,21,0.00,,,0.00,Weather View 32 v70,2013-05-01 22:10:00,
2013-05-01 18:15:00,74.8,30.9,30.35,West,275,3.0,8.0,20,0.00,,,0.00,Weather View 32 v70,2013-05-01 22:15:00,
2013-05-01 18:20:00,74.6,33.1,30.36,NW,323,1.0,8.0,22,0.00,,,0.00,Weather View 32 v70,2013-05-01 22:20:00,
2013-05-01 18:25:00,74.3,32.9,30.35,WNW,293,2.0,8.0,22,0.00,,,0.00,Weather View 32 v70,2013-05-01 22:25:00,
2013-05-01 18:30:00,74.3,30.5,30.35,SSE,159,2.0,8.0,20,0.00,,,0.00,Weather View 32 v70,2013-05-01 22:30:00,
2013-05-01 18:35:00,74.3,31.7,30.36,SW,232,2.0,8.0,21,0.00,,,0.00,Weather View 32 v70,2013-05-01 22:35:00,
2013-05-01 18:41:00,74.1,30.4,30.36,WSW,238,2.0,8.0,20,0.00,,,0.00,Weather View 32 v70,2013-05-01 22:41:00,
2013-05-01 18:46:00,74.1,30.4,30.36,SSW,200,4.0,8.0,20,0.00,,,0.00,Weather View 32 v70,2013-05-01 22:46:00,
2013-05-01 18:52:00,74.1,27.8,30.36,SE,133,2.0,8.0,18,0.00,,,0.00,Weather View 32 v70,2013-05-01 22:52:00,
2013-05-01 18:58:00,73.9,30.2,30.36,SSW,206,3.0,8.0,20,0.00,,,0.00,Weather View 32 v70,2013-05-01 22:58:00,
2013-05-01 19:03:00,73.7,31.2,30.36,SSW,205,2.0,8.0,21,0.00,,,0.00,Weather View 32 v70,2013-05-01 23:03:00,
2013-05-01 19:08:00,73.2,32.0,30.37,SW,233,2.0,8.0,22,0.00,,,0.00,Weather View 32 v70,2013-05-01 23:08:00,
2013-05-01 19:13:00,72.5,30.2,30.37,SSW,196,2.0,8.0,21,0.00,,,0.00,Weather View 32 v70,2013-05-01 23:13:00,
2013-05-01 19:19:00,72.3,31.2,30.37,NNW,339,2.0,8.0,22,0.00,,,0.00,Weather View 32 v70,2013-05-01 23:19:00,
2013-05-01 19:25:00,71.9,30.9,30.37,SSE,167,1.0,8.0,22,0.00,,,0.00,Weather View 32 v70,2013-05-01 23:25:00,
2013-05-01 19:30:00,71.7,29.6,30.38,South,176,2.0,8.0,21,0.00,,,0.00,Weather View 32 v70,2013-05-01 23:30:00,
2013-05-01 19:35:00,71.6,30.6,30.38,SSE,163,1.0,8.0,22,0.00,,,0.00,Weather View 32 v70,2013-05-01 23:35:00,
2013-05-01 19:40:00,71.0,33.3,30.38,SSW,204,1.0,8.0,25,0.00,,,0.00,Weather View 32 v70,2013-05-01 23:40:00,
2013-05-01 19:46:00,70.1,33.5,30.39,SSE,160,1.0,8.0,26,0.00,,,0.00,Weather View 32 v70,2013-05-01 23:46:00,
2013-05-01 19:51:00,68.3,37.2,30.39,SSW,211,1.0,8.0,32,0.00,,,0.00,Weather View 32 v70,2013-05-01 23:51:00,
2013-05-01 19:56:00,66.9,36.0,30.40,SSW,194,1.0,4.0,32,0.00,,,0.00,Weather View 32 v70,2013-05-01 23:56:00,
2013-05-01 20:01:00,65.6,37.1,30.40,SSW,192,1.0,4.0,35,0.00,,,0.00,Weather View 32 v70,2013-05-02 00:01:00,
2013-05-01 20:06:00,64.4,39.5,30.40,West,268,0.0,4.0,40,0.00,,,0.00,Weather View 32 v70,2013-05-02 00:06:00,
2013-05-01 20:12:00,63.1,40.2,30.41,West,268,0.0,4.0,43,0.00,,,0.00,Weather View 32 v70,2013-05-02 00:12:00,
2013-05-01 20:18:00,61.7,41.2,30.41,West,268,0.0,4.0,47,0.00,,,0.00,Weather View 32 v70,2013-05-02 00:18:00,
2013-05-01 20:23:00,60.6,41.3,30.42,NW,308,1.0,4.0,49,0.00,,,0.00,Weather View 32 v70,2013-05-02 00:23:00,
2013-05-01 20:28:00,59.7,43.5,30.42,NW,319,1.0,3.0,55,0.00,,,0.00,Weather View 32 v70,2013-05-02 00:28:00,
2013-05-01 20:33:00,58.4,42.3,30.42,NW,324,0.0,2.0,55,0.00,,,0.00,Weather View 32 v70,2013-05-02 00:33:00,
2013-05-01 20:39:00,57.9,42.3,30.43,NW,324,0.0,2.0,56,0.00,,,0.00,Weather View 32 v70,2013-05-02 00:39:00,
2013-05-01 20:44:00,56.8,41.7,30.43,WNW,297,0.0,2.0,57,0.00,,,0.00,Weather View 32 v70,2013-05-02 00:44:00,
2013-05-01 20:49:00,56.6,42.4,30.43,North,350,0.0,2.0,59,0.00,,,0.00,Weather View 32 v70,2013-05-02 00:49:00,
2013-05-01 20:54:00,56.1,41.0,30.44,WNW,282,0.0,2.0,57,0.00,,,0.00,Weather View 32 v70,2013-05-02 00:54:00,
2013-05-01 20:59:00,55.7,42.0,30.44,NNE,26,0.0,1.0,60,0.00,,,0.00,Weather View 32 v70,2013-05-02 00:59:00,
2013-05-01 21:05:00,55.2,41.1,30.44,South,169,0.0,1.0,59,0.00,,,0.00,Weather View 32 v70,2013-05-02 01:05:00,
2013-05-01 21:10:00,54.6,40.5,30.45,East,92,1.0,1.0,59,0.00,,,0.00,Weather View 32 v70,2013-05-02 01:10:00,
2013-05-01 21:15:00,54.8,42.8,30.46,ENE,77,2.0,2.0,64,0.00,,,0.00,Weather View 32 v70,2013-05-02 01:15:00,
2013-05-01 21:20:00,55.9,38.0,30.47,East,100,3.0,4.0,51,0.00,,,0.00,Weather View 32 v70,2013-05-02 01:20:00,
2013-05-01 21:25:00,58.8,33.8,30.46,East,81,3.0,5.0,39,0.00,,,0.00,Weather View 32 v70,2013-05-02 01:25:00,
2013-05-01 21:31:00,60.0,34.3,30.46,ESE,112,3.0,5.0,38,0.00,,,0.00,Weather View 32 v70,2013-05-02 01:31:00,
2013-05-01 21:36:00,60.4,33.3,30.46,SE,139,3.0,5.0,36,0.00,,,0.00,Weather View 32 v70,2013-05-02 01:36:00,
2013-05-01 21:41:00,61.1,33.9,30.46,SE,136,3.0,5.0,36,0.00,,,0.00,Weather View 32 v70,2013-05-02 01:41:00,
2013-05-01 21:46:00,61.5,35.6,30.46,ESE,120,2.0,5.0,38,0.00,,,0.00,Weather View 32 v70,2013-05-02 01:46:00,
2013-05-01 21:51:00,60.8,35.0,30.46,ESE,112,2.0,5.0,38,0.00,,,0.00,Weather View 32 v70,2013-05-02 01:51:00,
2013-05-01 21:56:00,61.1,35.2,30.47,SE,127,3.0,5.0,38,0.00,,,0.00,Weather View 32 v70,2013-05-02 01:56:00,
2013-05-01 22:01:00,60.9,35.7,30.47,South,175,1.0,5.0,39,0.00,,,0.00,Weather View 32 v70,2013-05-02 02:01:00,
2013-05-01 22:06:00,60.2,36.4,30.47,East,100,1.0,5.0,41,0.00,,,0.00,Weather View 32 v70,2013-05-02 02:06:00,
2013-05-01 22:11:00,59.9,37.9,30.47,SE,130,1.0,5.0,44,0.00,,,0.00,Weather View 32 v70,2013-05-02 02:11:00,
2013-05-01 22:17:00,59.5,38.7,30.47,SE,146,1.0,5.0,46,0.00,,,0.00,Weather View 32 v70,2013-05-02 02:17:00,
2013-05-01 22:22:00,58.4,39.8,30.48,NNW,330,0.0,5.0,50,0.00,,,0.00,Weather View 32 v70,2013-05-02 02:22:00,
2013-05-01 22:27:00,57.2,38.7,30.48,ESE,104,0.0,5.0,50,0.00,,,0.00,Weather View 32 v70,2013-05-02 02:27:00,
2013-05-01 22:32:00,56.6,39.1,30.48,ESE,115,1.0,5.0,52,0.00,,,0.00,Weather View 32 v70,2013-05-02 02:32:00,
2013-05-01 22:37:00,56.8,39.3,30.49,South,182,0.0,4.0,52,0.00,,,0.00,Weather View 32 v70,2013-05-02 02:37:00,
2013-05-01 22:42:00,57.0,38.5,30.48,ESE,106,2.0,7.0,50,0.00,,,0.00,Weather View 32 v70,2013-05-02 02:42:00,
2013-05-01 22:47:00,59.1,39.4,30.49,NE,54,2.0,7.0,48,0.00,,,0.00,Weather View 32 v70,2013-05-02 02:47:00,
2013-05-01 22:52:00,59.7,38.3,30.48,East,81,2.0,7.0,45,0.00,,,0.00,Weather View 32 v70,2013-05-02 02:52:00,
2013-05-01 22:58:00,59.9,37.9,30.48,ESE,109,3.0,7.0,44,0.00,,,0.00,Weather View 32 v70,2013-05-02 02:58:00,
2013-05-01 23:03:00,60.2,37.6,30.48,SSE,160,4.0,7.0,43,0.00,,,0.00,Weather View 32 v70,2013-05-02 03:03:00,
2013-05-01 23:08:00,60.6,37.9,30.48,SSE,156,2.0,7.0,43,0.00,,,0.00,Weather View 32 v70,2013-05-02 03:08:00,
2013-05-01 23:13:00,60.2,38.2,30.48,East,101,3.0,7.0,44,0.00,,,0.00,Weather View 32 v70,2013-05-02 03:13:00,
2013-05-01 23:18:00,60.0,38.0,30.48,SE,127,2.0,7.0,44,0.00,,,0.00,Weather View 32 v70,2013-05-02 03:18:00,
2013-05-01 23:23:00,59.9,39.0,30.47,SE,135,4.0,7.0,46,0.00,,,0.00,Weather View 32 v70,2013-05-02 03:23:00,
2013-05-01 23:28:00,59.7,38.8,30.47,SSE,156,4.0,7.0,46,0.00,,,0.00,Weather View 32 v70,2013-05-02 03:28:00,
2013-05-01 23:33:00,59.7,39.4,30.47,SSE,160,4.0,7.0,47,0.00,,,0.00,Weather View 32 v70,2013-05-02 03:33:00,
2013-05-01 23:38:00,59.5,38.7,30.47,ESE,123,4.0,7.0,46,0.00,,,0.00,Weather View 32 v70,2013-05-02 03:38:00,
2013-05-01 23:43:00,59.7,38.8,30.47,South,186,4.0,6.0,46,0.00,,,0.00,Weather View 32 v70,2013-05-02 03:43:00,
2013-05-01 23:48:00,59.5,39.2,30.47,ESE,118,3.0,6.0,47,0.00,,,0.00,Weather View 32 v70,2013-05-02 03:48:00,
2013-05-01 23:53:00,59.5,39.8,30.48,SE,139,2.0,6.0,48,0.00,,,0.00,Weather View 32 v70,2013-05-02 03:53:00,
2013-05-01 23:58:00,59.1,39.9,30.47,ENE,63,2.0,6.0,49,0.00,,,0.00,Weather View 32 v70,2013-05-02 03:58:00,